Foss, Oklahoma
Current Conditions -  °F | °C
As of 12:53 PM on Thursday 30 Oct 2014 (Local Time) from KCSM Reporting Station
Clear Clear  
Wind Chill: 75°   Ceiling: Unl
Heat Index: 75°   Visibility: 10mi
Dew Point: 37°   Wind: 20mph
Humidity: 25%   Direction: 30°NNE
Pressure: 30.2"   Gusts: NA
Location:  35.45°N, 99.17°W
Report Text: KCSM 301753Z 03017KT 10SM CLR 24/03 A3020 RMK AO2 SLP210 T02390028 10239 20106 50001
Loading
Personal Weather Stations






























Interactive Weather Map
Tropical Storm Tracking
New forecast layout! Learn more

10-Day Weather Forecast

Advertisements
Track Severe Weather on mobile